createdAt,value
2023-04-06T00:00:21.089Z,101675.39
2023-04-06T00:03:09.795Z,101671.36
2023-04-06T00:05:38.218Z,101672.45
2023-04-06T00:08:06.497Z,101670.05
2023-04-06T00:10:34.824Z,101668.54
2023-04-06T00:13:03.141Z,101674.27
2023-04-06T00:15:31.643Z,101676.87
2023-04-06T00:17:59.781Z,101671.48
2023-04-06T00:20:28.002Z,101671.33
2023-04-06T00:22:56.290Z,101667.45
2023-04-06T00:25:24.756Z,101671.05
2023-04-06T00:27:54.174Z,101674.48
2023-04-06T00:30:22.620Z,101676.77
2023-04-06T00:32:51.321Z,101675.81
2023-04-06T00:35:19.864Z,101672.77
2023-04-06T00:37:49.474Z,101672.41
2023-04-06T00:40:17.902Z,101672.48
2023-04-06T00:42:46.279Z,101671.20
2023-04-06T00:45:14.689Z,101673.76
2023-04-06T00:47:43.229Z,101672.16
2023-04-06T00:50:12.124Z,101672.99
2023-04-06T00:52:40.727Z,101677.09
2023-04-06T00:55:09.778Z,101677.41
2023-04-06T00:57:38.118Z,101679.21
2023-04-06T01:00:06.937Z,101681.11
2023-04-06T01:02:35.157Z,101678.65
2023-04-06T01:05:03.731Z,101676.75
2023-04-06T01:07:32.163Z,101673.72
2023-04-06T01:10:00.584Z,101672.83
2023-04-06T01:12:30.551Z,101673.35
2023-04-06T01:14:58.874Z,101674.48
2023-04-06T01:17:27.586Z,101676.31
2023-04-06T01:19:56.019Z,101680.04
2023-04-06T01:22:25.562Z,101678.05
2023-04-06T01:24:53.975Z,101672.95
2023-04-06T01:27:22.511Z,101672.03
2023-04-06T01:29:50.828Z,101673.58
2023-04-06T01:32:19.149Z,101672.80
2023-04-06T01:34:47.518Z,101671.55
2023-04-06T01:37:16.037Z,101669.58
2023-04-06T01:39:45.897Z,101665.80
2023-04-06T01:42:14.179Z,101668.80
2023-04-06T01:44:42.506Z,101669.86
2023-04-06T01:47:10.820Z,101666.33
2023-04-06T01:49:39.981Z,101667.17
2023-04-06T01:52:11.143Z,101670.05
2023-04-06T01:54:39.325Z,101670.95
2023-04-06T01:57:07.773Z,101671.73
2023-04-06T01:59:36.695Z,101671.50
2023-04-06T02:02:05.159Z,101667.85
2023-04-06T02:04:33.438Z,101669.89
2023-04-06T02:07:01.808Z,101669.67
2023-04-06T02:09:30.113Z,101671.69
2023-04-06T02:11:58.481Z,101667.81
2023-04-06T02:14:27.376Z,101666.38
2023-04-06T02:16:55.778Z,101664.00
2023-04-06T02:19:24.054Z,101666.61
2023-04-06T02:21:52.367Z,101662.14
2023-04-06T02:24:26.361Z,101661.20
2023-04-06T02:26:54.550Z,101659.43
2023-04-06T02:29:22.718Z,101658.92
2023-04-06T02:31:51.383Z,101660.46
2023-04-06T02:34:19.923Z,101661.16
2023-04-06T02:36:48.824Z,101659.14
2023-04-06T02:39:17.336Z,101664.05
2023-04-06T02:41:45.867Z,101664.55
2023-04-06T02:44:14.391Z,101667.11
2023-04-06T02:46:42.646Z,101667.93
2023-04-06T02:49:10.951Z,101666.86
2023-04-06T02:51:39.408Z,101668.98
2023-04-06T02:54:09.183Z,101669.13
2023-04-06T02:56:37.329Z,101672.06
2023-04-06T02:59:05.495Z,101675.89
2023-04-06T03:01:34.021Z,101677.44
2023-04-06T03:04:02.542Z,101679.33
2023-04-06T03:06:33.925Z,101676.63
2023-04-06T03:09:03.935Z,101680.23
2023-04-06T03:11:32.265Z,101684.17
2023-04-06T03:14:00.875Z,101679.33
2023-04-06T03:16:29.426Z,101685.08
2023-04-06T03:18:57.811Z,101687.44
2023-04-06T03:21:26.013Z,101684.81
2023-04-06T03:23:54.319Z,101688.43
2023-04-06T03:26:23.549Z,101687.41
2023-04-06T03:28:51.817Z,101683.84
2023-04-06T03:31:22.604Z,101685.75
2023-04-06T03:33:51.045Z,101685.59
2023-04-06T03:36:19.319Z,101689.07
2023-04-06T03:38:47.541Z,101685.02
2023-04-06T03:41:16.067Z,101685.16
2023-04-06T03:43:44.365Z,101686.34
2023-04-06T03:46:12.976Z,101684.95
2023-04-06T03:48:41.424Z,101688.30
2023-04-06T03:51:11.985Z,101690.16
2023-04-06T03:53:40.347Z,101692.87
2023-04-06T03:56:08.824Z,101686.83
2023-04-06T03:58:37.083Z,101694.46
2023-04-06T04:01:05.719Z,101690.77
2023-04-06T04:03:34.102Z,101692.80
2023-04-06T04:06:02.484Z,101694.23
2023-04-06T04:08:30.970Z,101693.83
2023-04-06T04:10:59.300Z,101694.17
2023-04-06T04:13:27.711Z,101694.27
2023-04-06T04:15:57.568Z,101701.20
2023-04-06T04:18:25.783Z,101699.27
2023-04-06T04:20:54.106Z,101700.64
2023-04-06T04:42:14.789Z,101703.92
2023-04-06T04:44:43.067Z,101703.48
2023-04-06T04:47:11.515Z,101701.20
2023-04-06T04:49:39.829Z,101701.64
2023-04-06T04:52:08.231Z,101705.55
2023-04-06T04:54:38.506Z,101711.27
2023-04-06T04:57:06.870Z,101712.42
2023-04-06T04:59:36.160Z,101715.33
2023-04-06T05:02:04.649Z,101714.27
2023-04-06T05:04:33.157Z,101715.02
2023-04-06T05:07:06.437Z,101716.02
2023-04-06T05:09:34.797Z,101711.19
2023-04-06T05:12:03.556Z,101712.27
2023-04-06T05:14:31.952Z,101716.30
2023-04-06T05:17:00.864Z,101718.95
2023-04-06T05:19:30.452Z,101719.73
2023-04-06T05:21:59.065Z,101721.77
2023-04-06T05:24:27.672Z,101719.64
2023-04-06T05:26:56.341Z,101716.05
2023-04-06T05:29:24.759Z,101717.65
2023-04-06T05:31:53.421Z,101720.60
2023-04-06T05:34:22.133Z,101720.85
2023-04-06T05:36:50.203Z,101719.98
2023-04-06T05:39:19.449Z,101721.24
2023-04-06T05:41:47.714Z,101719.42
2023-04-06T05:44:16.011Z,101720.38
2023-04-06T05:46:44.249Z,101721.59
2023-04-06T05:49:12.713Z,101718.95
2023-04-06T05:51:41.569Z,101718.16
2023-04-06T05:54:10.717Z,101718.39
2023-04-06T05:56:41.659Z,101721.75
2023-04-06T05:59:10.412Z,101720.63
2023-04-06T06:01:39.012Z,101718.36
2023-04-06T06:04:07.220Z,101717.70
2023-04-06T06:06:35.469Z,101714.37
2023-04-06T06:09:04.713Z,101717.35
2023-04-06T06:11:34.378Z,101716.23
2023-04-06T06:14:02.633Z,101710.06
2023-04-06T06:16:31.031Z,101710.30
2023-04-06T06:18:59.342Z,101710.88
2023-04-06T06:21:27.827Z,101707.31
2023-04-06T06:23:56.074Z,101706.35
2023-04-06T06:26:24.251Z,101704.27
2023-04-06T06:28:52.354Z,101707.45
2023-04-06T06:31:24.310Z,101710.81
2023-04-06T06:33:52.895Z,101710.11
2023-04-06T06:36:21.182Z,101710.19
2023-04-06T06:38:49.491Z,101710.41
2023-04-06T06:41:17.757Z,101709.97
2023-04-06T06:43:46.421Z,101705.68
2023-04-06T06:46:17.514Z,101705.05
2023-04-06T06:48:48.656Z,101703.19
2023-04-06T06:51:17.043Z,101701.15
2023-04-06T06:53:45.268Z,101701.20
2023-04-06T06:56:14.076Z,101703.69
2023-04-06T06:58:42.470Z,101706.75
2023-04-06T07:01:11.132Z,101703.88
2023-04-06T07:03:39.830Z,101701.50
2023-04-06T07:06:10.366Z,101703.29
2023-04-06T07:08:38.508Z,101701.95
2023-04-06T07:11:07.042Z,101697.83
2023-04-06T07:13:35.582Z,101696.48
2023-04-06T07:16:06.552Z,101695.31
2023-04-06T07:18:36.249Z,101692.04
2023-04-06T07:21:05.046Z,101694.67
2023-04-06T07:23:33.019Z,101693.13
2023-04-06T07:26:05.040Z,101693.19
2023-04-06T07:28:33.828Z,101694.97
2023-04-06T07:31:07.208Z,101689.92
